Time;durP1;ratioP1;P1;durP2;ratioP2;P2;SDS_P1;SDS_P2;PMS_P1;PMS_P2;Temp;Humidity;BMP_temperature;BMP_pressure;BME280_temperature;BME280_humidity;BME280_pressure;Samples;Min_cycle;Max_cycle;Signal;HPM_P1;HPM_P2
2023/12/17 00:00:50;;;;;;;;;;;19.50;57.80;;;;;;1598642;73;1574;-59
2023/12/17 00:02:51;;;;;;;;;;;19.50;57.80;;;;;;1600748;73;1158;-60
2023/12/17 00:04:53;;;;;;;;;;;19.50;57.80;;;;;;1603008;73;643;-60
2023/12/17 00:06:55;;;;;;;;;;;19.40;57.60;;;;;;1603034;73;1960;-59
2023/12/17 00:08:57;;;;;;;;;;;19.50;57.70;;;;;;1599945;73;760;-60
2023/12/17 00:10:59;;;;;;;;;;;19.40;57.50;;;;;;1601704;73;724;-60
2023/12/17 00:13:01;;;;;;;;;;;19.40;57.60;;;;;;1604267;73;1301;-60
2023/12/17 00:15:03;;;;;;;;;;;19.40;57.60;;;;;;1603300;73;719;-60
2023/12/17 00:17:05;;;;;;;;;;;19.50;57.80;;;;;;1602582;73;683;-59
2023/12/17 00:19:07;;;;;;;;;;;19.40;57.70;;;;;;1597055;73;711;-61
2023/12/17 00:21:09;;;;;;;;;;;19.50;57.80;;;;;;1604610;72;802;-61
2023/12/17 00:23:11;;;;;;;;;;;19.40;57.60;;;;;;1592566;73;1119;-60
2023/12/17 00:25:13;;;;;;;;;;;19.40;57.60;;;;;;1596297;74;1926;-60
2023/12/17 00:27:15;;;;;;;;;;;19.40;57.50;;;;;;1601892;73;1555;-61
2023/12/17 00:29:17;;;;;;;;;;;19.40;57.60;;;;;;1604869;73;743;-61
2023/12/17 00:31:19;;;;;;;;;;;19.40;57.60;;;;;;1601249;72;667;-60
2023/12/17 00:33:21;;;;;;;;;;;19.40;57.50;;;;;;1602933;73;1110;-61
2023/12/17 00:35:23;;;;;;;;;;;19.40;57.50;;;;;;1595797;73;601;-60
2023/12/17 00:37:25;;;;;;;;;;;19.40;57.60;;;;;;1604319;73;739;-61
2023/12/17 00:39:27;;;;;;;;;;;19.40;57.60;;;;;;1602150;73;647;-60
2023/12/17 00:41:29;;;;;;;;;;;19.40;57.60;;;;;;1598869;74;1502;-60
2023/12/17 00:43:31;;;;;;;;;;;19.40;57.50;;;;;;1600188;73;1139;-61
2023/12/17 00:45:32;;;;;;;;;;;19.40;57.50;;;;;;1602396;72;1932;-60
2023/12/17 00:47:34;;;;;;;;;;;19.40;57.50;;;;;;1597215;73;830;-59
2023/12/17 00:49:36;;;;;;;;;;;19.40;57.50;;;;;;1594408;73;774;-59
2023/12/17 00:51:38;;;;;;;;;;;19.40;57.50;;;;;;1597578;73;746;-60
2023/12/17 00:53:40;;;;;;;;;;;19.40;56.80;;;;;;1601692;73;1229;-61
2023/12/17 00:55:42;;;;;;;;;;;19.40;56.80;;;;;;1604539;73;1429;-60
2023/12/17 00:57:44;;;;;;;;;;;19.40;56.80;;;;;;1599209;73;799;-61
2023/12/17 00:59:46;;;;;;;;;;;19.30;56.80;;;;;;1599797;73;722;-60
2023/12/17 01:01:48;;;;;;;;;;;19.40;56.80;;;;;;1597268;73;752;-60
2023/12/17 01:03:49;;;;;;;;;;;19.40;56.80;;;;;;1606427;73;1150;-60
2023/12/17 01:05:51;;;;;;;;;;;19.40;56.80;;;;;;1601427;73;1930;-60
2023/12/17 01:07:53;;;;;;;;;;;19.40;56.80;;;;;;1604981;73;784;-59
2023/12/17 01:09:55;;;;;;;;;;;19.40;56.80;;;;;;1596357;72;1427;-60
2023/12/17 01:11:59;;;;;;;;;;;19.40;57.50;;;;;;1602487;73;674;-61
2023/12/17 01:14:00;;;;;;;;;;;19.40;57.50;;;;;;1596384;73;1170;-60
2023/12/17 01:16:04;;;;;;;;;;;19.40;57.60;;;;;;1599080;72;702;-60
2023/12/17 01:18:05;;;;;;;;;;;19.40;57.50;;;;;;1603700;73;765;-60
2023/12/17 01:20:08;;;;;;;;;;;19.30;57.50;;;;;;1600044;72;680;-60
2023/12/17 01:22:10;;;;;;;;;;;19.30;57.50;;;;;;1600289;73;667;-60
2023/12/17 01:24:11;;;;;;;;;;;19.40;57.50;;;;;;1596674;73;1520;-60
2023/12/17 01:26:20;;;;;;;;;;;19.30;57.50;;;;;;1603225;73;1940;-60
2023/12/17 01:28:22;;;;;;;;;;;19.40;57.60;;;;;;1604928;73;760;-60
2023/12/17 01:30:24;;;;;;;;;;;19.40;57.60;;;;;;1601882;73;757;-61
2023/12/17 01:32:26;;;;;;;;;;;19.30;57.60;;;;;;1603797;72;740;-59
2023/12/17 01:34:27;;;;;;;;;;;19.30;57.60;;;;;;1608945;73;1112;-59
2023/12/17 01:36:29;;;;;;;;;;;19.40;57.60;;;;;;1593730;73;796;-59
2023/12/17 01:38:31;;;;;;;;;;;19.40;57.60;;;;;;1604857;73;1414;-59
2023/12/17 01:40:33;;;;;;;;;;;19.30;57.70;;;;;;1604396;72;803;-59
2023/12/17 01:42:35;;;;;;;;;;;19.50;57.90;;;;;;1597264;73;1147;-61
2023/12/17 01:44:37;;;;;;;;;;;19.40;57.80;;;;;;1597442;73;942;-59
2023/12/17 01:46:39;;;;;;;;;;;19.30;57.90;;;;;;1596032;73;1907;-60
2023/12/17 01:48:42;;;;;;;;;;;19.40;58.00;;;;;;1600933;73;801;-60
2023/12/17 01:50:43;;;;;;;;;;;19.40;58.00;;;;;;1604827;73;765;-60
2023/12/17 01:52:45;;;;;;;;;;;19.40;58.00;;;;;;1603639;73;1612;-60
2023/12/17 01:54:47;;;;;;;;;;;19.40;58.10;;;;;;1600016;73;747;-60
2023/12/17 01:56:49;;;;;;;;;;;19.40;58.20;;;;;;1609237;73;751;-60
2023/12/17 01:58:51;;;;;;;;;;;19.40;58.20;;;;;;1602907;72;732;-60
2023/12/17 02:00:53;;;;;;;;;;;19.40;58.20;;;;;;1602927;73;787;-61
2023/12/17 02:02:55;;;;;;;;;;;19.40;58.20;;;;;;1600829;73;1159;-59
2023/12/17 02:04:57;;;;;;;;;;;19.40;58.20;;;;;;1602710;72;1020;-60
2023/12/17 02:06:59;;;;;;;;;;;19.40;58.30;;;;;;1606689;73;1936;-60
2023/12/17 02:09:00;;;;;;;;;;;19.40;58.30;;;;;;1604761;73;599;-61
2023/12/17 02:11:02;;;;;;;;;;;19.40;58.30;;;;;;1599712;73;755;-60
2023/12/17 02:13:04;;;;;;;;;;;19.40;58.40;;;;;;1605129;73;1206;-59
2023/12/17 02:15:07;;;;;;;;;;;19.40;58.40;;;;;;1602716;72;803;-60
2023/12/17 02:17:09;;;;;;;;;;;19.40;58.50;;;;;;1601006;72;726;-61
2023/12/17 02:19:11;;;;;;;;;;;19.40;58.50;;;;;;1601006;73;745;-61
2023/12/17 02:21:13;;;;;;;;;;;19.40;58.50;;;;;;1599591;73;1212;-60
2023/12/17 02:23:15;;;;;;;;;;;19.40;58.50;;;;;;1601846;73;1143;-61
2023/12/17 02:25:17;;;;;;;;;;;19.60;58.60;;;;;;1598657;73;741;-61
2023/12/17 02:27:20;;;;;;;;;;;19.40;58.50;;;;;;1602328;72;1930;-59
2023/12/17 02:29:22;;;;;;;;;;;19.40;58.50;;;;;;1602288;72;727;-61
2023/12/17 02:31:24;;;;;;;;;;;19.40;58.40;;;;;;1563757;75;689;-60
2023/12/17 02:33:26;;;;;;;;;;;19.40;58.40;;;;;;1600778;73;1085;-60
2023/12/17 02:35:27;;;;;;;;;;;19.40;58.40;;;;;;1604070;73;1526;-60
2023/12/17 02:37:29;;;;;;;;;;;19.40;58.40;;;;;;1604883;73;651;-61
2023/12/17 02:39:31;;;;;;;;;;;19.40;58.30;;;;;;1604170;73;758;-60
2023/12/17 02:41:33;;;;;;;;;;;19.40;58.30;;;;;;1600191;73;735;-60
2023/12/17 02:43:35;;;;;;;;;;;19.00;58.10;;;;;;1599492;73;1133;-60
2023/12/17 02:45:37;;;;;;;;;;;19.40;58.30;;;;;;1606175;72;662;-61
2023/12/17 02:47:39;;;;;;;;;;;19.40;58.30;;;;;;1602692;73;1907;-60
2023/12/17 02:49:41;;;;;;;;;;;19.40;58.20;;;;;;1599755;73;1693;-60
2023/12/17 02:51:43;;;;;;;;;;;19.40;58.20;;;;;;1602789;73;701;-61
2023/12/17 02:53:45;;;;;;;;;;;19.40;58.20;;;;;;1604205;73;1095;-59
2023/12/17 02:55:47;;;;;;;;;;;19.40;58.10;;;;;;1605550;74;786;-60
2023/12/17 02:57:49;;;;;;;;;;;19.50;58.20;;;;;;1600272;72;770;-60
2023/12/17 02:59:52;;;;;;;;;;;19.40;58.00;;;;;;1604249;72;669;-59
2023/12/17 03:01:54;;;;;;;;;;;19.40;58.00;;;;;;1597279;72;1351;-59
2023/12/17 03:03:57;;;;;;;;;;;19.40;58.00;;;;;;1595656;73;1087;-59
2023/12/17 03:05:59;;;;;;;;;;;19.40;58.00;;;;;;1597437;73;687;-60
2023/12/17 03:08:01;;;;;;;;;;;19.40;58.00;;;;;;1601260;74;1937;-61
2023/12/17 03:10:03;;;;;;;;;;;19.40;58.00;;;;;;1601843;73;691;-59
2023/12/17 03:12:05;;;;;;;;;;;19.40;58.00;;;;;;1602161;74;691;-59
2023/12/17 03:14:07;;;;;;;;;;;19.40;57.90;;;;;;1603460;72;1179;-60
2023/12/17 03:16:09;;;;;;;;;;;19.40;57.90;;;;;;1606678;72;1250;-60
2023/12/17 03:18:11;;;;;;;;;;;19.40;57.90;;;;;;1595559;73;691;-60
2023/12/17 03:20:14;;;;;;;;;;;19.40;57.80;;;;;;1603432;73;870;-59
2023/12/17 03:22:15;;;;;;;;;;;19.40;57.80;;;;;;1595531;73;749;-60
2023/12/17 03:24:17;;;;;;;;;;;19.40;57.80;;;;;;1604044;73;1110;-60
2023/12/17 03:26:19;;;;;;;;;;;19.40;57.70;;;;;;1600479;73;1925;-60
2023/12/17 03:28:21;;;;;;;;;;;19.40;57.70;;;;;;1603812;73;801;-60
2023/12/17 03:30:23;;;;;;;;;;;19.40;57.70;;;;;;1598072;73;1318;-61
2023/12/17 03:32:25;;;;;;;;;;;19.40;57.70;;;;;;1603349;73;747;-61
2023/12/17 03:34:27;;;;;;;;;;;19.30;57.70;;;;;;1599322;73;1082;-59
2023/12/17 03:36:28;;;;;;;;;;;19.40;57.70;;;;;;1605898;73;792;-62
2023/12/17 03:38:30;;;;;;;;;;;19.40;57.80;;;;;;1604031;73;776;-61
2023/12/17 03:40:32;;;;;;;;;;;19.40;57.80;;;;;;1600862;73;784;-61
2023/12/17 03:42:34;;;;;;;;;;;19.40;57.80;;;;;;1599021;72;1151;-61
2023/12/17 03:44:37;;;;;;;;;;;19.40;57.90;;;;;;1599325;73;1567;-59
2023/12/17 03:46:39;;;;;;;;;;;19.40;57.80;;;;;;1600517;73;1917;-60
2023/12/17 03:48:40;;;;;;;;;;;19.40;57.80;;;;;;1588932;73;665;-59
2023/12/17 03:50:42;;;;;;;;;;;19.40;57.80;;;;;;1598480;73;667;-59
2023/12/17 03:52:45;;;;;;;;;;;19.30;57.80;;;;;;1606247;73;1153;-60
2023/12/17 03:54:47;;;;;;;;;;;19.40;57.80;;;;;;1598348;73;958;-60
2023/12/17 03:56:48;;;;;;;;;;;19.40;57.80;;;;;;1604455;73;775;-60
2023/12/17 03:58:50;;;;;;;;;;;19.40;57.90;;;;;;1602789;72;1564;-60
2023/12/17 04:00:52;;;;;;;;;;;19.40;57.90;;;;;;1593323;73;662;-60
2023/12/17 04:02:54;;;;;;;;;;;19.40;57.80;;;;;;1593871;73;1139;-59
2023/12/17 04:04:56;;;;;;;;;;;19.40;57.90;;;;;;1602423;73;755;-60
2023/12/17 04:06:58;;;;;;;;;;;19.40;57.90;;;;;;1602699;73;1925;-59
2023/12/17 04:09:00;;;;;;;;;;;19.40;58.00;;;;;;1600240;73;664;-60
2023/12/17 04:11:03;;;;;;;;;;;19.40;58.00;;;;;;1596756;73;749;-59
2023/12/17 04:13:05;;;;;;;;;;;19.30;58.00;;;;;;1604018;72;1552;-60
2023/12/17 04:15:07;;;;;;;;;;;19.40;58.00;;;;;;1597629;73;721;-60
2023/12/17 04:17:09;;;;;;;;;;;19.40;58.00;;;;;;1604358;73;708;-60
2023/12/17 04:19:11;;;;;;;;;;;19.30;58.00;;;;;;1595482;72;731;-60
2023/12/17 04:21:13;;;;;;;;;;;19.40;58.00;;;;;;1602964;73;693;-60
2023/12/17 04:23:15;;;;;;;;;;;19.40;58.00;;;;;;1604719;73;1135;-60
2023/12/17 04:25:17;;;;;;;;;;;19.40;58.10;;;;;;1597364;72;706;-61
2023/12/17 04:27:19;;;;;;;;;;;19.30;58.10;;;;;;1598731;73;1925;-59
2023/12/17 04:29:20;;;;;;;;;;;19.30;58.10;;;;;;1605747;73;751;-60
2023/12/17 04:31:23;;;;;;;;;;;19.30;58.10;;;;;;1602990;73;671;-60
2023/12/17 04:33:25;;;;;;;;;;;19.30;58.20;;;;;;1599592;73;1111;-60
2023/12/17 04:35:27;;;;;;;;;;;19.30;58.20;;;;;;1597070;73;672;-59
2023/12/17 04:37:29;;;;;;;;;;;19.40;58.20;;;;;;1604719;73;727;-61
2023/12/17 04:39:31;;;;;;;;;;;19.30;58.20;;;;;;1603937;73;660;-60
2023/12/17 04:41:37;;;;;;;;;;;19.30;58.20;;;;;;1602789;73;1520;-59
2023/12/17 04:43:36;;;;;;;;;;;19.30;58.20;;;;;;1603343;74;1279;-60
2023/12/17 04:45:38;;;;;;;;;;;19.30;58.20;;;;;;1599919;73;608;-60
2023/12/17 04:47:40;;;;;;;;;;;19.30;58.20;;;;;;1600340;73;1918;-59
2023/12/17 04:49:42;;;;;;;;;;;19.30;58.20;;;;;;1605731;73;762;-61
2023/12/17 04:51:44;;;;;;;;;;;19.30;58.20;;;;;;1606241;73;681;-61
2023/12/17 04:53:46;;;;;;;;;;;19.30;58.10;;;;;;1601273;73;1079;-59
2023/12/17 04:55:48;;;;;;;;;;;19.30;58.20;;;;;;1601480;72;1515;-59
2023/12/17 04:57:49;;;;;;;;;;;19.30;58.20;;;;;;1602352;74;915;-59
2023/12/17 04:59:51;;;;;;;;;;;19.30;58.20;;;;;;1606047;73;692;-59
2023/12/17 05:01:53;;;;;;;;;;;19.30;58.20;;;;;;1602671;73;740;-60
2023/12/17 05:03:55;;;;;;;;;;;19.30;58.20;;;;;;1599247;73;1160;-59
2023/12/17 05:05:57;;;;;;;;;;;19.30;58.20;;;;;;1597261;74;767;-60
2023/12/17 05:08:00;;;;;;;;;;;19.30;58.30;;;;;;1595670;72;1938;-59
2023/12/17 05:10:02;;;;;;;;;;;19.20;58.20;;;;;;1601258;73;1497;-59
2023/12/17 05:12:05;;;;;;;;;;;19.30;58.30;;;;;;1599493;73;702;-59
2023/12/17 05:14:06;;;;;;;;;;;19.20;58.20;;;;;;1600275;73;1145;-61
2023/12/17 05:16:08;;;;;;;;;;;19.30;58.20;;;;;;1606007;73;766;-60
2023/12/17 05:18:10;;;;;;;;;;;19.30;58.30;;;;;;1608219;73;679;-60
2023/12/17 05:20:12;;;;;;;;;;;19.30;58.40;;;;;;1601699;73;855;-60
2023/12/17 05:22:14;;;;;;;;;;;19.20;58.20;;;;;;1599658;73;662;-59
2023/12/17 05:24:16;;;;;;;;;;;19.20;58.30;;;;;;1602772;72;1538;-59
2023/12/17 05:26:18;;;;;;;;;;;19.30;58.40;;;;;;1601321;73;786;-60
2023/12/17 05:28:20;;;;;;;;;;;19.20;58.40;;;;;;1603008;73;1952;-60
2023/12/17 05:30:22;;;;;;;;;;;19.20;58.40;;;;;;1604247;73;655;-59
2023/12/17 05:32:24;;;;;;;;;;;19.20;58.40;;;;;;1599868;73;780;-61
2023/12/17 05:34:26;;;;;;;;;;;19.30;58.50;;;;;;1597730;73;1049;-59
2023/12/17 05:36:28;;;;;;;;;;;19.30;58.50;;;;;;1601362;73;1525;-59
2023/12/17 05:38:30;;;;;;;;;;;19.20;58.50;;;;;;1600366;72;768;-59
2023/12/17 05:40:32;;;;;;;;;;;19.30;58.60;;;;;;1606160;72;686;-59
2023/12/17 05:42:34;;;;;;;;;;;19.20;58.60;;;;;;1607590;73;1131;-59
2023/12/17 05:44:36;;;;;;;;;;;19.30;58.80;;;;;;1591994;74;869;-58
2023/12/17 05:46:38;;;;;;;;;;;19.30;58.80;;;;;;1601273;73;739;-60
2023/12/17 05:48:40;;;;;;;;;;;19.30;58.90;;;;;;1607345;73;1921;-60
2023/12/17 05:50:42;;;;;;;;;;;19.30;58.90;;;;;;1600534;73;1323;-60
2023/12/17 05:52:44;;;;;;;;;;;19.30;58.80;;;;;;1599859;73;1115;-58
2023/12/17 05:54:46;;;;;;;;;;;19.30;58.80;;;;;;1600990;73;765;-60
2023/12/17 05:56:48;;;;;;;;;;;19.30;58.80;;;;;;1603136;73;730;-59
2023/12/17 05:58:50;;;;;;;;;;;19.30;58.80;;;;;;1594802;73;777;-60
2023/12/17 06:00:51;;;;;;;;;;;19.60;58.90;;;;;;1602575;73;743;-60
2023/12/17 06:02:53;;;;;;;;;;;19.30;58.80;;;;;;1600949;73;1130;-60
2023/12/17 06:04:55;;;;;;;;;;;19.30;58.80;;;;;;1604929;73;1310;-59
2023/12/17 06:06:58;;;;;;;;;;;19.30;58.80;;;;;;1603467;73;737;-59
2023/12/17 06:08:59;;;;;;;;;;;19.30;58.90;;;;;;1595731;73;1926;-60
2023/12/17 06:11:01;;;;;;;;;;;19.30;58.80;;;;;;1602324;73;737;-60
2023/12/17 06:13:03;;;;;;;;;;;19.30;58.90;;;;;;1595392;73;1186;-60
2023/12/17 06:15:07;;;;;;;;;;;19.30;58.80;;;;;;1598026;73;795;-59
2023/12/17 06:17:08;;;;;;;;;;;19.30;58.80;;;;;;1605291;73;692;-60
2023/12/17 06:19:11;;;;;;;;;;;19.30;58.80;;;;;;1591053;73;1443;-60
2023/12/17 06:21:25;;;;;;;;;;;19.30;58.80;;;;;;1602293;72;678;-59
2023/12/17 06:23:27;;;;;;;;;;;19.30;58.90;;;;;;1603349;72;1141;-60
2023/12/17 06:25:29;;;;;;;;;;;19.30;58.80;;;;;;1607834;73;698;-59
2023/12/17 06:27:33;;;;;;;;;;;19.30;58.70;;;;;;1594426;73;1950;-59
2023/12/17 06:29:35;;;;;;;;;;;19.30;58.70;;;;;;1595954;73;2149;-60
2023/12/17 06:31:36;;;;;;;;;;;19.40;58.70;;;;;;1601253;73;723;-60
2023/12/17 06:33:38;;;;;;;;;;;19.30;58.90;;;;;;1599707;73;1668;-59
2023/12/17 06:35:40;;;;;;;;;;;19.30;58.90;;;;;;1602466;73;729;-59
2023/12/17 06:37:42;;;;;;;;;;;19.30;59.00;;;;;;1606271;72;695;-59
2023/12/17 06:39:44;;;;;;;;;;;19.30;59.00;;;;;;1604508;73;903;-60
2023/12/17 06:41:47;;;;;;;;;;;19.30;59.00;;;;;;1599662;73;763;-60
2023/12/17 06:43:49;;;;;;;;;;;19.80;59.20;;;;;;1598438;73;1128;-60
2023/12/17 06:45:51;;;;;;;;;;;19.30;59.00;;;;;;1603514;73;685;-60
2023/12/17 06:47:53;;;;;;;;;;;19.30;59.10;;;;;;1600626;73;1925;-59
2023/12/17 06:49:55;;;;;;;;;;;19.30;59.10;;;;;;1604469;73;788;-59
2023/12/17 06:51:57;;;;;;;;;;;19.30;59.00;;;;;;1607765;72;727;-60
2023/12/17 06:53:59;;;;;;;;;;;19.30;59.10;;;;;;1602443;73;1135;-59
2023/12/17 06:56:01;;;;;;;;;;;19.30;59.00;;;;;;1604319;72;773;-60
2023/12/17 06:58:03;;;;;;;;;;;19.30;59.00;;;;;;1597764;73;683;-60
2023/12/17 07:00:05;;;;;;;;;;;19.30;59.00;;;;;;1600855;73;884;-61
2023/12/17 07:02:07;;;;;;;;;;;19.30;59.00;;;;;;1602819;72;1522;-60
2023/12/17 07:04:09;;;;;;;;;;;19.30;59.10;;;;;;1597329;73;1145;-61
2023/12/17 07:06:12;;;;;;;;;;;19.30;59.20;;;;;;1598213;74;785;-60
2023/12/17 07:08:14;;;;;;;;;;;19.20;59.20;;;;;;1602142;73;1924;-61
2023/12/17 07:10:16;;;;;;;;;;;19.30;59.20;;;;;;1603652;74;867;-60
2023/12/17 07:12:18;;;;;;;;;;;19.30;59.30;;;;;;1600359;73;812;-60
2023/12/17 07:14:20;;;;;;;;;;;19.30;59.20;;;;;;1604555;73;1108;-59
2023/12/17 07:16:25;;;;;;;;;;;19.30;59.20;;;;;;1600587;73;1562;-60
2023/12/17 07:18:27;;;;;;;;;;;19.30;59.20;;;;;;1596800;73;821;-60
2023/12/17 07:20:29;;;;;;;;;;;19.20;59.10;;;;;;1605068;73;799;-60
2023/12/17 07:22:30;;;;;;;;;;;19.20;59.10;;;;;;1606250;72;1119;-61
2023/12/17 07:24:33;;;;;;;;;;;19.30;59.10;;;;;;1605649;73;744;-60
2023/12/17 07:26:35;;;;;;;;;;;19.30;59.20;;;;;;1605315;73;925;-60
2023/12/17 07:28:37;;;;;;;;;;;19.30;59.10;;;;;;1598972;73;1933;-60
2023/12/17 07:30:39;;;;;;;;;;;19.30;59.10;;;;;;1601004;73;1280;-60
2023/12/17 07:32:41;;;;;;;;;;;19.30;59.10;;;;;;1600044;73;1116;-60
2023/12/17 07:34:43;;;;;;;;;;;19.30;59.10;;;;;;1603330;73;821;-61
2023/12/17 07:36:45;;;;;;;;;;;19.30;58.80;;;;;;1597178;73;761;-61
2023/12/17 07:38:47;;;;;;;;;;;19.30;58.60;;;;;;1604362;72;767;-60
2023/12/17 07:40:49;;;;;;;;;;;19.20;58.40;;;;;;1596460;73;718;-60
2023/12/17 07:42:51;;;;;;;;;;;19.30;58.50;;;;;;1606108;73;1164;-60
2023/12/17 07:44:53;;;;;;;;;;;19.30;58.40;;;;;;1599582;73;1656;-60
2023/12/17 07:46:54;;;;;;;;;;;19.30;58.30;;;;;;1602082;73;680;-60
2023/12/17 07:48:56;;;;;;;;;;;19.30;58.30;;;;;;1601241;73;1926;-58
2023/12/17 07:51:01;;;;;;;;;;;19.20;58.10;;;;;;1596903;72;613;-60
2023/12/17 07:53:02;;;;;;;;;;;19.20;58.00;;;;;;1603577;73;1642;-60
2023/12/17 07:55:04;;;;;;;;;;;19.20;58.00;;;;;;1601735;73;751;-59
2023/12/17 07:57:08;;;;;;;;;;;19.30;58.10;;;;;;1602226;73;1545;-60
2023/12/17 07:59:10;;;;;;;;;;;19.20;58.00;;;;;;1602539;73;717;-59
2023/12/17 08:01:11;;;;;;;;;;;19.30;58.00;;;;;;1599442;73;717;-60
2023/12/17 08:03:13;;;;;;;;;;;19.20;58.00;;;;;;1600189;73;1142;-60
2023/12/17 08:05:17;;;;;;;;;;;19.20;58.00;;;;;;1602007;72;714;-60
2023/12/17 08:07:19;;;;;;;;;;;19.20;58.00;;;;;;1602564;73;810;-60
2023/12/17 08:09:21;;;;;;;;;;;19.20;57.90;;;;;;1599485;73;1914;-59
2023/12/17 08:11:23;;;;;;;;;;;19.20;58.00;;;;;;1596077;73;1516;-60
2023/12/17 08:13:25;;;;;;;;;;;19.20;58.00;;;;;;1597620;73;1134;-60
2023/12/17 08:15:26;;;;;;;;;;;19.20;58.00;;;;;;1604551;73;740;-59
2023/12/17 08:17:29;;;;;;;;;;;19.20;58.00;;;;;;1600782;73;723;-60
2023/12/17 08:19:30;;;;;;;;;;;19.20;57.90;;;;;;1594831;73;805;-59
2023/12/17 08:21:32;;;;;;;;;;;19.20;57.90;;;;;;1601161;73;669;-60
2023/12/17 08:23:35;;;;;;;;;;;19.20;57.90;;;;;;1603368;73;1166;-59
2023/12/17 08:25:38;;;;;;;;;;;19.30;58.00;;;;;;1603840;73;1489;-59
2023/12/17 08:27:40;;;;;;;;;;;19.20;57.90;;;;;;1600100;73;682;-60
2023/12/17 08:29:47;;;;;;;;;;;19.20;58.00;;;;;;1597828;73;1948;-60
2023/12/17 08:31:47;;;;;;;;;;;19.20;58.00;;;;;;1599931;73;1742;-59
2023/12/17 08:33:52;;;;;;;;;;;19.20;58.00;;;;;;1597784;73;2078;-60
2023/12/17 08:35:52;;;;;;;;;;;19.20;58.00;;;;;;1599860;73;1677;-58
2023/12/17 08:37:59;;;;;;;;;;;19.20;58.00;;;;;;1601961;72;758;-60
2023/12/17 08:39:58;;;;;;;;;;;19.20;57.90;;;;;;1599397;73;1563;-60
2023/12/17 08:42:00;;;;;;;;;;;19.20;58.00;;;;;;1597562;73;751;-61
2023/12/17 08:44:02;;;;;;;;;;;19.30;58.00;;;;;;1601890;73;1110;-59
2023/12/17 08:46:04;;;;;;;;;;;19.30;58.00;;;;;;1597503;73;726;-60
2023/12/17 08:48:05;;;;;;;;;;;19.20;57.90;;;;;;1598508;73;810;-61
2023/12/17 08:50:08;;;;;;;;;;;19.20;57.90;;;;;;1606895;72;1933;-60
2023/12/17 08:52:10;;;;;;;;;;;19.20;57.80;;;;;;1601858;73;729;-61
2023/12/17 08:54:12;;;;;;;;;;;19.30;57.90;;;;;;1603705;73;1551;-60
2023/12/17 08:56:14;;;;;;;;;;;19.20;57.80;;;;;;1605817;73;703;-61
2023/12/17 08:58:17;;;;;;;;;;;19.20;57.60;;;;;;1602394;73;753;-60
2023/12/17 09:00:19;;;;;;;;;;;19.20;57.60;;;;;;1600695;73;743;-60
2023/12/17 09:02:20;;;;;;;;;;;19.20;57.50;;;;;;1602743;72;755;-60
2023/12/17 09:04:22;;;;;;;;;;;19.30;56.20;;;;;;1604636;72;1099;-61
2023/12/17 09:06:24;;;;;;;;;;;19.30;55.70;;;;;;1602264;74;794;-60
2023/12/17 09:08:29;;;;;;;;;;;19.30;56.30;;;;;;1603242;73;1925;-61
2023/12/17 09:10:31;;;;;;;;;;;19.30;56.50;;;;;;1600107;73;726;-60
2023/12/17 09:12:33;;;;;;;;;;;19.30;56.50;;;;;;1605455;73;1151;-59
2023/12/17 09:14:36;;;;;;;;;;;19.20;56.30;;;;;;1602748;73;723;-61
2023/12/17 09:16:37;;;;;;;;;;;19.30;56.20;;;;;;1602616;73;678;-60
2023/12/17 09:18:41;;;;;;;;;;;19.20;57.70;;;;;;1604106;73;774;-59
2023/12/17 09:20:43;;;;;;;;;;;19.30;59.40;;;;;;1602566;73;768;-59
2023/12/17 09:22:45;;;;;;;;;;;19.20;60.40;;;;;;1603949;73;1384;-60
2023/12/17 09:24:47;;;;;;;;;;;19.30;60.60;;;;;;1594127;72;1076;-59
2023/12/17 09:26:49;;;;;;;;;;;19.30;60.50;;;;;;1600860;73;1350;-59
2023/12/17 09:28:51;;;;;;;;;;;19.20;60.30;;;;;;1600444;73;1930;-59
2023/12/17 09:30:53;;;;;;;;;;;19.30;60.20;;;;;;1596841;73;1100;-58
2023/12/17 09:32:55;;;;;;;;;;;19.30;60.10;;;;;;1602778;73;1232;-60
2023/12/17 09:35:02;;;;;;;;;;;19.40;59.90;;;;;;1600415;72;1059;-61
2023/12/17 09:37:04;;;;;;;;;;;19.30;59.70;;;;;;1602759;73;1554;-57
2023/12/17 09:39:06;;;;;;;;;;;19.30;59.50;;;;;;1602358;73;1415;-59
2023/12/17 09:41:09;;;;;;;;;;;19.30;59.50;;;;;;1601327;73;1321;-56
2023/12/17 09:43:11;;;;;;;;;;;19.40;59.40;;;;;;1601574;73;1155;-59
2023/12/17 09:45:17;;;;;;;;;;;19.30;59.40;;;;;;1597446;73;1045;-59
2023/12/17 09:47:20;;;;;;;;;;;19.30;59.30;;;;;;1596738;73;1228;-59
2023/12/17 09:49:20;;;;;;;;;;;19.30;59.30;;;;;;1594509;72;1944;-59
2023/12/17 09:51:22;;;;;;;;;;;19.30;59.30;;;;;;1604378;72;1803;-59
2023/12/17 09:53:25;;;;;;;;;;;19.30;59.20;;;;;;1605572;73;1222;-58
2023/12/17 09:55:27;;;;;;;;;;;19.40;59.20;;;;;;1599212;73;1541;-59
2023/12/17 09:57:29;;;;;;;;;;;19.30;59.30;;;;;;1601032;72;1059;-59
2023/12/17 09:59:36;;;;;;;;;;;19.30;59.20;;;;;;1599000;73;1063;-59
2023/12/17 10:01:39;;;;;;;;;;;19.30;59.20;;;;;;1596033;73;1722;-59
2023/12/17 10:03:38;;;;;;;;;;;19.40;59.20;;;;;;1564148;74;1316;-60
2023/12/17 10:05:40;;;;;;;;;;;19.40;59.20;;;;;;1603101;73;1683;-59
2023/12/17 10:07:43;;;;;;;;;;;19.30;59.10;;;;;;1602095;73;1386;-60
2023/12/17 10:09:45;;;;;;;;;;;19.30;59.10;;;;;;1600375;72;1928;-59
2023/12/17 10:11:47;;;;;;;;;;;19.30;59.00;;;;;;1603145;72;1025;-60
2023/12/17 10:13:49;;;;;;;;;;;19.20;58.00;;;;;;1605981;73;1140;-59
2023/12/17 10:15:56;;;;;;;;;;;19.30;58.40;;;;;;1598556;73;1100;-59
2023/12/17 10:17:55;;;;;;;;;;;19.30;58.40;;;;;;1598217;73;1552;-59
2023/12/17 10:19:57;;;;;;;;;;;19.30;58.40;;;;;;1599632;72;1325;-57
2023/12/17 10:22:01;;;;;;;;;;;19.30;58.30;;;;;;1601972;73;1057;-57
2023/12/17 10:24:04;;;;;;;;;;;19.30;58.20;;;;;;1597174;72;1581;-57
2023/12/17 10:26:06;;;;;;;;;;;19.30;58.20;;;;;;1597069;73;1428;-56
2023/12/17 10:28:11;;;;;;;;;;;19.30;58.20;;;;;;1599962;74;1297;-58
2023/12/17 10:30:13;;;;;;;;;;;19.40;58.10;;;;;;1601595;72;1926;-56
2023/12/17 10:32:17;;;;;;;;;;;19.30;58.00;;;;;;1596926;73;1458;-59
2023/12/17 10:34:23;;;;;;;;;;;19.30;58.00;;;;;;1594227;72;1225;-57
2023/12/17 10:36:24;;;;;;;;;;;19.30;58.00;;;;;;1595833;72;1645;-57
2023/12/17 10:38:27;;;;;;;;;;;19.30;57.90;;;;;;1599943;72;1345;-58
2023/12/17 10:40:30;;;;;;;;;;;19.30;57.80;;;;;;1593387;73;1306;-58
2023/12/17 10:42:32;;;;;;;;;;;19.30;57.80;;;;;;1593462;72;1348;-59
2023/12/17 10:44:34;;;;;;;;;;;19.30;57.70;;;;;;1601613;73;1139;-58
2023/12/17 10:46:35;;;;;;;;;;;19.30;57.60;;;;;;1596132;72;1511;-57
2023/12/17 10:48:37;;;;;;;;;;;19.30;57.50;;;;;;1599441;73;1426;-58
2023/12/17 10:50:39;;;;;;;;;;;19.30;57.50;;;;;;1606612;73;1931;-60
2023/12/17 10:52:41;;;;;;;;;;;19.30;56.80;;;;;;1600163;72;1441;-60
2023/12/17 10:54:43;;;;;;;;;;;19.30;56.80;;;;;;1603408;72;1188;-59
2023/12/17 10:56:46;;;;;;;;;;;19.30;56.80;;;;;;1604195;72;1092;-58
2023/12/17 10:58:48;;;;;;;;;;;19.40;56.80;;;;;;1596672;72;1265;-56
2023/12/17 11:00:50;;;;;;;;;;;19.40;56.70;;;;;;1599479;73;1462;-59
2023/12/17 11:02:52;;;;;;;;;;;19.30;56.70;;;;;;1598962;73;1116;-59
2023/12/17 11:04:58;;;;;;;;;;;19.30;56.80;;;;;;1602490;72;1187;-59
2023/12/17 11:07:05;;;;;;;;;;;19.40;56.70;;;;;;1602676;73;1027;-56
2023/12/17 11:09:25;;;;;;;;;;;19.30;56.70;;;;;;1592504;72;1926;-57
2023/12/17 11:11:31;;;;;;;;;;;19.40;56.80;;;;;;1624362;72;1170;-61
2023/12/17 11:13:33;;;;;;;;;;;19.30;56.80;;;;;;1616895;72;1386;-59
2023/12/17 11:15:35;;;;;;;;;;;19.40;56.80;;;;;;1615609;72;1605;-60
2023/12/17 11:17:41;;;;;;;;;;;19.30;56.70;;;;;;1585104;73;1318;-58
2023/12/17 11:19:56;;;;;;;;;;;19.30;56.80;;;;;;1610453;72;1178;-56
2023/12/17 11:22:00;;;;;;;;;;;19.40;56.80;;;;;;1609926;72;1072;-57
2023/12/17 11:24:02;;;;;;;;;;;19.30;56.80;;;;;;1610170;72;1439;-57
2023/12/17 11:26:05;;;;;;;;;;;19.30;56.80;;;;;;1618789;72;1380;-56
2023/12/17 11:28:08;;;;;;;;;;;19.40;56.80;;;;;;1611165;72;1517;-58
2023/12/17 11:30:11;;;;;;;;;;;19.30;56.80;;;;;;1610017;72;1915;-60
2023/12/17 11:32:15;;;;;;;;;;;19.30;56.80;;;;;;1607103;72;1380;-56
2023/12/17 11:34:17;;;;;;;;;;;19.30;57.40;;;;;;1615509;72;1254;-56
2023/12/17 11:36:18;;;;;;;;;;;19.40;56.80;;;;;;1612023;72;1291;-56
2023/12/17 11:40:31;;;;;;;;;;;19.40;56.80;;;;;;1586379;70;220712;-71
2023/12/17 11:42:36;;;;;;;;;;;19.30;57.50;;;;;;1563714;74;1494;-71
2023/12/17 11:44:38;;;;;;;;;;;19.40;57.40;;;;;;1560284;74;1522;-70
2023/12/17 11:46:40;;;;;;;;;;;19.40;57.50;;;;;;1559715;74;1764;-71
2023/12/17 11:48:42;;;;;;;;;;;19.30;56.80;;;;;;1561545;74;1480;-73
2023/12/17 11:50:44;;;;;;;;;;;19.40;56.80;;;;;;1563724;74;1930;-73
2023/12/17 11:52:48;;;;;;;;;;;19.40;56.80;;;;;;1565280;74;1360;-70
2023/12/17 11:54:51;;;;;;;;;;;19.40;56.80;;;;;;1559479;74;1543;-68
2023/12/17 11:56:53;;;;;;;;;;;19.40;56.80;;;;;;1568839;74;1424;-70
2023/12/17 11:58:55;;;;;;;;;;;19.30;56.70;;;;;;1568128;74;1491;-69
2023/12/17 12:01:08;;;;;;;;;;;19.40;56.80;;;;;;1568163;74;1515;-71
2023/12/17 12:03:10;;;;;;;;;;;19.40;56.80;;;;;;1570738;74;1073;-70
2023/12/17 12:05:14;;;;;;;;;;;19.30;56.80;;;;;;1569911;74;1275;-72
2023/12/17 12:07:17;;;;;;;;;;;19.40;56.80;;;;;;1562207;74;2050;-75
2023/12/17 12:09:19;;;;;;;;;;;19.40;56.80;;;;;;1558817;74;1229;-72